Time;durP1;ratioP1;P1;durP2;ratioP2;P2;SDS_P1;SDS_P2;PMS_P1;PMS_P2;Temp;Humidity;BMP_temperature;BMP_pressure;BME280_temperature;BME280_humidity;BME280_pressure;Samples;Min_cycle;Max_cycle;Signal;HPM_P1;HPM_P2
2022/05/07 00:01:49;;;;;;;;;8.67;6.00;;;;;17.36;95.42;101771.66;6298143;22;46135;-96
2022/05/07 00:04:14;;;;;;;;;4.33;4.33;;;;;17.39;95.34;101784.13;6357629;22;44811;-96
2022/05/07 00:09:32;;;;;;;;;6.33;5.67;;;;;17.25;95.95;101759.75;6310270;22;44905;-96
2022/05/07 00:12:17;;;;;;;;;6.00;5.67;;;;;17.19;96.02;101758.69;6305335;22;45915;-96
2022/05/07 00:14:44;;;;;;;;;8.00;6.67;;;;;17.16;96.05;101755.06;6290198;22;44740;-96
2022/05/07 00:19:54;;;;;;;;;10.00;6.33;;;;;17.13;96.43;101754.91;6154627;23;45112;-96
2022/05/07 00:25:06;;;;;;;;;9.00;6.00;;;;;17.08;96.63;101763.63;6231061;22;44715;-96
2022/05/07 00:27:31;;;;;;;;;6.33;6.33;;;;;17.04;97.28;101745.78;6301972;22;44757;-96
2022/05/07 00:29:57;;;;;;;;;5.00;5.00;;;;;17.05;97.34;101749.34;6320664;22;45194;-96
2022/05/07 00:32:22;;;;;;;;;2.00;1.00;;;;;16.96;97.55;101731.34;6302294;22;46668;-96
2022/05/07 00:35:26;;;;;;;;;6.67;6.33;;;;;16.88;97.61;101725.75;6323532;22;45195;-96
2022/05/07 00:37:52;;;;;;;;;6.33;6.00;;;;;16.95;98.45;101738.41;6307949;22;44743;-96
2022/05/07 00:40:18;;;;;;;;;7.67;7.00;;;;;16.83;98.59;101724.69;6279242;22;44836;-96
2022/05/07 00:42:52;;;;;;;;;6.67;6.33;;;;;16.85;98.38;101738.94;6284778;22;46874;-96
2022/05/07 00:45:21;;;;;;;;;8.00;7.67;;;;;16.77;98.96;101727.16;6315000;22;46130;-96
2022/05/07 00:48:32;;;;;;;;;8.67;6.67;;;;;16.67;98.72;101715.31;6241798;22;44825;-96
2022/05/07 00:53:44;;;;;;;;;6.00;5.67;;;;;16.58;99.51;101698.25;6259329;22;45154;-96
2022/05/07 00:56:09;;;;;;;;;7.00;6.00;;;;;16.57;99.02;101722.06;6256904;22;45185;-96
2022/05/07 00:58:39;;;;;;;;;4.00;4.00;;;;;16.53;99.42;101707.78;6215506;22;44848;-96
2022/05/07 01:01:04;;;;;;;;;7.33;6.00;;;;;16.50;99.87;101705.00;6165137;22;45338;-96
2022/05/07 01:03:30;;;;;;;;;9.67;6.67;;;;;16.53;100.00;101721.03;6183183;23;46953;-96
2022/05/07 01:06:02;;;;;;;;;8.67;7.00;;;;;16.38;100.00;101684.28;6184717;23;44788;-96
2022/05/07 01:08:33;;;;;;;;;8.00;7.00;;;;;16.37;100.00;101695.72;6135941;23;44790;-96
2022/05/07 01:11:17;;;;;;;;;9.00;8.33;;;;;16.35;99.98;101694.75;6184070;23;45370;-96
2022/05/07 01:13:51;;;;;;;;;8.00;6.33;;;;;16.30;100.00;101692.84;6194475;22;47547;-96
2022/05/07 01:16:25;;;;;;;;;9.67;9.67;;;;;16.26;100.00;101690.91;6161481;22;44760;-95
2022/05/07 01:19:12;;;;;;;;;5.67;5.67;;;;;16.18;100.00;101682.69;6195855;22;44770;-96
2022/05/07 01:37:28;;;;;;;;;8.00;6.00;;;;;16.08;100.00;101667.31;6316872;22;46241;-96
2022/05/07 01:42:29;;;;;;;;;9.00;6.67;;;;;16.02;100.00;101673.25;6353154;22;45026;-96
2022/05/07 02:26:34;;;;;;;;;7.00;6.00;;;;;15.68;100.00;101624.31;6306822;22;46259;-96
2022/05/07 02:28:59;;;;;;;;;10.00;7.67;;;;;15.69;100.00;101640.25;6322294;22;44839;-96
2022/05/07 02:31:26;;;;;;;;;6.33;6.33;;;;;15.68;100.00;101648.13;6318163;22;45419;-96
2022/05/07 02:33:52;;;;;;;;;7.00;7.00;;;;;15.63;100.00;101645.31;6329001;22;45543;-96
2022/05/07 02:39:06;;;;;;;;;11.67;8.67;;;;;15.56;100.00;101632.69;6353073;22;45681;-96
2022/05/07 02:44:40;;;;;;;;;7.00;7.00;;;;;15.60;100.00;101643.44;6346600;22;45206;-96
2022/05/07 02:47:06;;;;;;;;;9.33;7.33;;;;;15.48;100.00;101632.38;6324890;22;47360;-96
2022/05/07 02:49:32;;;;;;;;;8.00;7.67;;;;;15.41;100.00;101621.53;6328017;22;44621;-96
2022/05/07 02:52:04;;;;;;;;;11.00;8.67;;;;;15.45;100.00;101630.50;6309752;22;46125;-96
2022/05/07 02:59:42;;;;;;;;;5.67;5.67;;;;;15.27;100.00;101617.47;6293758;22;44957;-96
2022/05/07 03:04:52;;;;;;;;;10.00;8.00;;;;;15.33;100.00;101617.72;6315243;22;45901;-96
2022/05/07 03:07:22;;;;;;;;;11.00;10.00;;;;;15.23;100.00;101604.97;6328629;22;46892;-96
2022/05/07 03:12:59;;;;;;;;;10.67;10.33;;;;;15.26;100.00;101621.84;6341851;22;45426;-95
2022/05/07 03:20:37;;;;;;;;;8.33;8.33;;;;;15.25;100.00;101621.78;6321462;22;45005;-96
2022/05/07 03:25:49;;;;;;;;;9.33;5.67;;;;;15.22;100.00;101609.34;6284484;22;46144;-96
2022/05/07 03:33:25;;;;;;;;;13.00;8.33;;;;;15.13;100.00;101580.78;6290870;22;46243;-96
2022/05/07 03:35:51;;;;;;;;;8.00;7.67;;;;;15.13;100.00;101588.72;6322439;22;44780;-96
2022/05/07 03:40:52;;;;;;;;;12.00;9.33;;;;;15.09;100.00;101576.22;6288290;22;44651;-96
2022/05/07 03:43:17;;;;;;;;;11.00;10.00;;;;;15.18;100.00;101586.25;6255361;22;45440;-96
2022/05/07 03:45:43;;;;;;;;;11.33;8.00;;;;;15.10;100.00;101578.00;6164914;22;44784;-96
2022/05/07 03:48:09;;;;;;;;;12.67;9.67;;;;;15.10;100.00;101562.13;6154052;22;47113;-96
2022/05/07 03:50:36;;;;;;;;;10.00;8.00;;;;;15.08;100.00;101564.72;6158537;23;45404;-96
2022/05/07 03:55:46;;;;;;;;;11.00;9.33;;;;;15.10;100.00;101567.44;6163863;23;44735;-96
2022/05/07 03:58:17;;;;;;;;;8.67;8.67;;;;;14.99;100.00;101553.81;6163924;22;46250;-96
2022/05/07 04:00:43;;;;;;;;;11.33;9.00;;;;;14.97;100.00;101544.91;6139746;23;45125;-96
2022/05/07 04:08:20;;;;;;;;;9.33;9.00;;;;;14.96;100.00;101561.59;6159942;22;46313;-96
2022/05/07 04:10:48;;;;;;;;;11.33;10.00;;;;;14.95;100.00;101552.75;6193919;22;44862;-96
2022/05/07 04:13:19;;;;;;;;;10.75;10.50;;;;;14.87;100.00;101537.44;6173741;22;45259;-96
2022/05/07 04:15:49;;;;;;;;;13.00;10.00;;;;;14.92;100.00;101551.75;6196755;22;44843;-96
2022/05/07 04:18:16;;;;;;;;;13.75;11.00;;;;;14.81;100.00;101538.06;6187181;22;46806;-96
2022/05/07 04:20:43;;;;;;;;;11.67;10.33;;;;;14.77;100.00;101534.38;6199367;22;44743;-96
2022/05/07 04:25:45;;;;;;;;;10.00;9.67;;;;;14.70;100.00;101527.03;6164081;22;45794;-96
2022/05/07 04:28:10;;;;;;;;;19.33;11.00;;;;;14.73;100.00;101536.00;6175054;22;46962;-96
2022/05/07 04:30:36;;;;;;;;;14.67;11.33;;;;;14.65;100.00;101526.88;6192014;22;44732;-96
2022/05/07 04:33:02;;;;;;;;;9.67;9.67;;;;;14.69;100.00;101522.63;6197375;23;45176;-96
2022/05/07 04:35:37;;;;;;;;;12.33;10.00;;;;;14.72;100.00;101528.91;6200650;23;44807;-96
2022/05/07 04:38:03;;;;;;;;;13.67;11.00;;;;;14.58;100.00;101512.50;6192639;23;46548;-96
2022/05/07 04:40:29;;;;;;;;;11.33;10.00;;;;;14.66;100.00;101526.03;6190916;23;45405;-96
2022/05/07 04:42:59;;;;;;;;;10.67;10.00;;;;;14.59;100.00;101513.38;6194465;22;45399;-96
2022/05/07 04:45:25;;;;;;;;;11.00;8.67;;;;;14.64;100.00;101518.03;6165950;23;45101;-96
2022/05/07 04:47:52;;;;;;;;;9.33;8.00;;;;;14.68;100.00;101513.78;6187737;23;46297;-96
2022/05/07 04:50:17;;;;;;;;;7.00;7.00;;;;;14.67;100.00;101513.69;6191784;23;45034;-96
2022/05/07 04:52:43;;;;;;;;;11.75;10.00;;;;;14.57;100.00;101491.28;6196644;22;45193;-96
2022/05/07 04:55:32;;;;;;;;;8.00;6.67;;;;;14.63;100.00;101488.91;6193812;23;44788;-96
2022/05/07 04:57:59;;;;;;;;;11.00;10.00;;;;;14.77;100.00;101499.13;6177113;23;47534;-96
2022/05/07 05:00:25;;;;;;;;;13.67;11.67;;;;;14.67;100.00;101495.22;6194394;23;45168;-96
2022/05/07 05:02:51;;;;;;;;;14.00;12.33;;;;;14.71;100.00;101498.06;6170129;23;44787;-96
2022/05/07 05:05:17;;;;;;;;;11.00;10.67;;;;;14.74;100.00;101492.00;6193177;23;44883;-96
2022/05/07 05:07:46;;;;;;;;;12.33;11.33;;;;;14.76;100.00;101487.66;6167483;23;46953;-96
2022/05/07 05:10:12;;;;;;;;;10.00;10.00;;;;;14.64;100.00;101474.84;6165137;23;45028;-96
2022/05/07 05:12:37;;;;;;;;;16.00;10.33;;;;;14.72;100.00;101476.06;6168739;23;45166;-96
2022/05/07 05:15:05;;;;;;;;;16.00;12.00;;;;;14.63;100.00;101467.78;6190491;23;44781;-96
2022/05/07 05:17:50;;;;;;;;;11.00;10.00;;;;;14.77;100.00;101475.34;6188476;23;47652;-96
2022/05/07 05:20:16;;;;;;;;;12.67;12.67;;;;;14.67;100.00;101437.97;6189184;23;44665;-96
2022/05/07 05:22:57;;;;;;;;;15.00;11.67;;;;;14.78;100.00;101459.56;6171392;23;45242;-96
2022/05/07 05:25:24;;;;;;;;;10.33;10.33;;;;;14.72;100.00;101446.09;6197363;23;44737;-96
2022/05/07 05:27:50;;;;;;;;;18.00;12.33;;;;;14.74;100.00;101447.94;6201559;22;45469;-96
2022/05/07 05:30:37;;;;;;;;;12.00;11.00;;;;;14.82;100.00;101452.63;6194213;23;44794;-96
2022/05/07 05:33:07;;;;;;;;;11.00;11.00;;;;;14.81;100.00;101435.00;6203164;22;44715;-96
2022/05/07 05:35:33;;;;;;;;;13.33;13.00;;;;;14.92;100.00;101449.53;6169943;23;44869;-96
2022/05/07 05:37:59;;;;;;;;;12.33;10.67;;;;;14.90;100.00;101456.53;6189871;23;48021;-96
2022/05/07 05:40:24;;;;;;;;;16.00;12.33;;;;;14.88;100.00;101445.00;6162526;22;44684;-96
2022/05/07 05:43:11;;;;;;;;;13.67;11.67;;;;;14.93;100.00;101447.81;6170134;23;44729;-96
2022/05/07 05:45:37;;;;;;;;;12.33;10.00;;;;;15.00;100.00;101454.25;6197826;22;45182;-96
2022/05/07 05:48:15;;;;;;;;;17.00;12.33;;;;;15.07;100.00;101449.25;6194789;23;46364;-96
2022/05/07 05:50:52;;;;;;;;;12.00;12.00;;;;;15.06;100.00;101447.44;6196800;22;44733;-96
2022/05/07 05:54:02;;;;;;;;;12.67;10.33;;;;;15.10;100.00;101450.22;6172804;22;44644;-96
2022/05/07 05:56:27;;;;;;;;;11.67;10.33;;;;;15.18;100.00;101447.00;6197053;23;44913;-96
2022/05/07 05:58:55;;;;;;;;;9.67;9.00;;;;;15.19;100.00;101446.16;6198449;22;47286;-96
2022/05/07 06:01:27;;;;;;;;;14.67;13.33;;;;;15.29;100.00;101447.41;6197704;23;45054;-96
2022/05/07 06:03:54;;;;;;;;;12.67;10.00;;;;;15.36;100.00;101447.66;6192637;23;44824;-96
2022/05/07 06:06:19;;;;;;;;;13.00;10.00;;;;;15.44;100.00;101442.59;6184334;22;45333;-86
2022/05/07 06:08:46;;;;;;;;;12.00;12.00;;;;;15.56;100.00;101469.53;6172122;22;45295;-87
2022/05/07 06:11:11;;;;;;;;;15.33;13.00;;;;;15.62;100.00;101467.09;6173032;22;45300;-86
2022/05/07 06:13:36;;;;;;;;;17.33;12.00;;;;;15.66;100.00;101473.41;6174941;22;45297;-85
2022/05/07 06:16:02;;;;;;;;;14.33;12.33;;;;;15.69;100.00;101473.53;6173709;22;45274;-86
2022/05/07 06:18:29;;;;;;;;;13.33;12.00;;;;;15.74;100.00;101485.19;6172795;23;45481;-87
2022/05/07 06:20:54;;;;;;;;;15.67;11.33;;;;;15.80;100.00;101491.50;6174071;22;45363;-86
2022/05/07 06:23:19;;;;;;;;;18.67;14.00;;;;;15.88;100.00;101503.28;6172313;22;45699;-85
2022/05/07 06:28:29;;;;;;;;;16.00;13.00;;;;;15.98;100.00;101521.28;6174289;23;45384;-86
2022/05/07 06:30:54;;;;;;;;;14.67;7.67;;;;;16.01;100.00;101522.25;6172742;22;45326;-85
2022/05/07 06:33:23;;;;;;;;;14.33;11.67;;;;;16.04;100.00;101536.50;6173236;22;45380;-85
2022/05/07 06:35:48;;;;;;;;;9.33;6.67;;;;;16.06;100.00;101541.88;6172786;22;45345;-85
2022/05/07 06:38:14;;;;;;;;;14.00;12.33;;;;;16.11;100.00;101548.25;6172499;22;45342;-86
2022/05/07 06:40:39;;;;;;;;;12.75;8.75;;;;;16.18;100.00;101544.06;6172936;22;45380;-85
2022/05/07 06:43:08;;;;;;;;;17.50;14.25;;;;;16.20;100.00;101550.31;6172715;23;45823;-86
2022/05/07 06:45:34;;;;;;;;;13.33;12.00;;;;;16.23;100.00;101560.13;6171000;23;45541;-86
2022/05/07 06:48:00;;;;;;;;;10.00;10.00;;;;;16.28;100.00;101564.75;6172752;23;45381;-86
2022/05/07 06:50:26;;;;;;;;;14.00;13.67;;;;;16.31;100.00;101548.94;6173141;22;45337;-86
2022/05/07 06:52:52;;;;;;;;;17.00;14.00;;;;;16.40;100.00;101560.69;6172621;22;45339;-86
2022/05/07 06:55:19;;;;;;;;;16.00;12.00;;;;;16.45;100.00;101548.50;6171047;22;45482;-87
2022/05/07 06:57:45;;;;;;;;;16.00;11.67;;;;;16.52;100.00;101552.25;6172006;22;46180;-86
2022/05/07 07:00:12;;;;;;;;;16.33;12.67;;;;;16.63;100.00;101552.63;6170037;23;45804;-86
2022/05/07 07:02:38;;;;;;;;;15.33;11.33;;;;;16.73;100.00;101548.53;6172842;22;45336;-85
2022/05/07 07:05:04;;;;;;;;;12.67;10.33;;;;;16.88;100.00;101553.41;6172138;23;45296;-85
2022/05/07 07:07:31;;;;;;;;;11.67;9.33;;;;;16.96;100.00;101548.34;6170441;23;47174;-85
2022/05/07 07:09:56;;;;;;;;;14.00;9.33;;;;;17.04;100.00;101551.25;6172958;22;45798;-85
2022/05/07 07:12:22;;;;;;;;;11.67;10.00;;;;;17.16;100.00;101561.41;6173359;22;45244;-87
2022/05/07 07:14:48;;;;;;;;;10.67;9.33;;;;;17.24;100.00;101559.88;6172644;22;45398;-86
2022/05/07 07:17:16;;;;;;;;;13.00;9.33;;;;;17.32;100.00;101565.41;6170519;23;47956;-86
2022/05/07 07:19:42;;;;;;;;;14.33;13.00;;;;;17.40;100.00;101566.53;6172537;22;45448;-86
2022/05/07 07:22:07;;;;;;;;;18.00;14.00;;;;;17.48;100.00;101574.75;6172112;23;45329;-87
2022/05/07 07:24:33;;;;;;;;;14.33;11.00;;;;;17.57;100.00;101567.91;6172211;23;45267;-85
2022/05/07 07:26:58;;;;;;;;;15.00;10.33;;;;;17.62;100.00;101569.84;6172899;22;45947;-86
2022/05/07 07:29:24;;;;;;;;;15.33;14.33;;;;;17.65;100.00;101575.22;6169482;23;45594;-88
2022/05/07 07:31:49;;;;;;;;;14.33;13.33;;;;;17.69;100.00;101572.66;6172723;23;45279;-85
2022/05/07 07:34:15;;;;;;;;;15.67;13.00;;;;;17.72;100.00;101573.69;6172308;23;45258;-88
2022/05/07 07:36:40;;;;;;;;;12.33;9.00;;;;;17.74;100.00;101584.31;6171474;23;58079;-86
2022/05/07 07:39:07;;;;;;;;;16.33;12.33;;;;;17.73;100.00;101572.81;6172195;23;48228;-87
2022/05/07 07:41:34;;;;;;;;;13.33;11.33;;;;;17.77;100.00;101579.13;6173777;23;45303;-87
2022/05/07 07:43:59;;;;;;;;;14.00;12.00;;;;;17.81;100.00;101583.63;6174149;23;45315;-89
2022/05/07 07:49:09;;;;;;;;;14.00;12.33;;;;;17.92;100.00;101591.94;6173190;23;45549;-88
2022/05/07 07:51:35;;;;;;;;;10.67;10.00;;;;;18.01;100.00;101593.06;6172314;23;45295;-89
2022/05/07 07:54:00;;;;;;;;;13.00;9.67;;;;;18.09;100.00;101597.69;6170756;23;45417;-88
2022/05/07 07:56:26;;;;;;;;;11.00;9.00;;;;;18.18;100.00;101594.41;6169069;23;54937;-88
2022/05/07 07:58:51;;;;;;;;;12.67;10.00;;;;;18.29;100.00;101594.75;6169918;23;45768;-87
2022/05/07 08:01:17;;;;;;;;;15.33;12.00;;;;;18.36;100.00;101595.78;6172726;23;45427;-88
2022/05/07 08:03:42;;;;;;;;;14.33;11.00;;;;;18.38;100.00;101593.16;6173252;22;45311;-90
2022/05/07 08:06:07;;;;;;;;;13.00;11.00;;;;;18.43;100.00;101597.75;6172594;23;46755;-89
2022/05/07 08:14:00;;;;;;;;;11.33;8.00;;;;;18.59;100.00;101594.59;6174573;23;45489;-93
2022/05/07 08:16:26;;;;;;;;;11.00;9.67;;;;;18.74;100.00;101605.63;6162467;23;48149;-88
2022/05/07 08:18:52;;;;;;;;;13.00;8.67;;;;;18.91;100.00;101598.94;6167085;23;45353;-88
2022/05/07 08:21:18;;;;;;;;;8.00;8.00;;;;;19.10;100.00;101606.47;6169890;23;45386;-88
2022/05/07 08:23:43;;;;;;;;;14.00;9.67;;;;;19.29;100.00;101612.28;6173417;23;45297;-89
2022/05/07 08:26:10;;;;;;;;;13.33;10.67;;;;;19.48;100.00;101615.31;6172312;23;46752;-90
2022/05/07 08:28:37;;;;;;;;;11.33;9.33;;;;;19.68;100.00;101616.63;6175271;23;45332;-88
2022/05/07 08:31:03;;;;;;;;;7.67;5.00;;;;;19.85;100.00;101627.63;6170483;23;45746;-88
2022/05/07 08:33:29;;;;;;;;;7.67;7.33;;;;;20.06;100.00;101620.94;6169592;23;45856;-89
2022/05/07 08:35:54;;;;;;;;;12.67;11.67;;;;;20.26;100.00;101637.38;6170466;23;48350;-89
2022/05/07 08:38:20;;;;;;;;;9.00;6.33;;;;;20.36;100.00;101626.91;6173582;23;46726;-89
2022/05/07 08:40:45;;;;;;;;;14.00;10.33;;;;;20.47;100.00;101648.41;6173212;23;45312;-89
2022/05/07 08:43:11;;;;;;;;;9.33;9.00;;;;;20.49;100.00;101657.31;6173360;22;45560;-89
2022/05/07 08:45:40;;;;;;;;;11.67;10.67;;;;;20.59;100.00;101650.41;6175310;23;45524;-89
2022/05/07 08:48:05;;;;;;;;;10.33;7.67;;;;;20.76;100.00;101651.59;6172055;23;45663;-89
2022/05/07 08:50:31;;;;;;;;;11.00;9.67;;;;;20.94;100.00;101662.56;6174060;23;45393;-90
2022/05/07 08:52:57;;;;;;;;;16.67;10.33;;;;;21.05;100.00;101677.03;6196094;22;45395;-89
2022/05/07 08:55:22;;;;;;;;;14.33;10.00;;;;;21.12;100.00;101675.34;6172133;23;47892;-90
2022/05/07 08:57:50;;;;;;;;;10.67;9.00;;;;;21.17;100.00;101681.66;6171227;23;46004;-89
2022/05/07 09:00:18;;;;;;;;;7.67;7.33;;;;;21.21;100.00;101691.50;6171428;23;45338;-89
2022/05/07 09:02:50;;;;;;;;;8.67;8.67;;;;;21.24;100.00;101689.75;6174532;22;45590;-89
2022/05/07 09:05:18;;;;;;;;;11.33;10.33;;;;;21.30;100.00;101690.75;6173879;22;46424;-89
2022/05/07 09:07:54;;;;;;;;;9.33;7.67;;;;;21.48;100.00;101691.91;6173681;22;45237;-89
2022/05/07 09:10:24;;;;;;;;;11.67;8.33;;;;;21.58;100.00;101698.28;6174286;22;45344;-90
2022/05/07 09:12:49;;;;;;;;;8.33;8.33;;;;;21.61;100.00;101697.44;6173293;22;45397;-90
2022/05/07 09:15:15;;;;;;;;;10.00;8.33;;;;;21.57;100.00;101707.16;6170975;23;47812;-89
2022/05/07 09:17:40;;;;;;;;;11.00;9.00;;;;;21.54;100.00;101693.78;6167617;23;45719;-91
2022/05/07 09:20:18;;;;;;;;;9.00;8.00;;;;;21.56;100.00;101684.00;6222508;22;45621;-89
2022/05/07 09:23:10;;;;;;;;;10.00;7.33;;;;;21.53;100.00;101702.66;6174491;22;45319;-90
2022/05/07 09:25:45;;;;;;;;;10.33;7.33;;;;;21.63;100.00;101691.22;6171435;23;47959;-90
2022/05/07 09:28:10;;;;;;;;;8.33;7.00;;;;;21.81;100.00;101675.41;6175318;22;45496;-90
2022/05/07 09:30:35;;;;;;;;;13.00;9.67;;;;;22.03;100.00;101681.09;6173389;23;45606;-89
2022/05/07 09:33:01;;;;;;;;;11.00;9.00;;;;;22.29;100.00;101686.72;6172556;23;53639;-90
2022/05/07 09:38:12;;;;;;;;;5.00;5.00;;;;;23.12;100.00;101702.72;6174799;23;45625;-87
2022/05/07 09:40:40;;;;;;;;;7.00;6.33;;;;;23.78;100.00;101713.91;6168789;23;45598;-89
2022/05/07 09:43:08;;;;;;;;;7.67;6.00;;;;;24.44;100.00;101732.97;6169028;22;45413;-91
2022/05/07 09:45:35;;;;;;;;;7.00;7.00;;;;;24.85;100.00;101749.13;6173386;22;45459;-90
2022/05/07 09:48:01;;;;;;;;;5.67;5.67;;;;;24.96;100.00;101759.91;6172195;22;45382;-91
2022/05/07 09:58:37;;;;;;;;;8.67;7.33;;;;;25.54;100.00;101765.28;6173779;23;45517;-90
2022/05/07 10:01:20;;;;;;;;;7.33;6.33;;;;;27.94;100.00;101750.38;6171333;23;45664;-90
2022/05/07 10:04:22;;;;;;;;;7.67;7.00;;;;;30.84;100.00;101798.59;6172482;23;45308;-91
2022/05/07 10:07:06;;;;;;;;;7.00;6.00;;;;;32.34;99.79;101858.94;6172526;23;46664;-91
2022/05/07 10:09:58;;;;;;;;;6.33;5.00;;;;;32.00;92.88;101901.50;6170064;23;45600;-90
2022/05/07 10:12:25;;;;;;;;;3.00;3.00;;;;;31.94;91.05;101903.47;6171717;23;45619;-91
2022/05/07 10:14:51;;;;;;;;;10.33;7.00;;;;;31.52;88.71;101928.06;6171181;23;45325;-92
2022/05/07 10:17:21;;;;;;;;;7.67;6.67;;;;;30.99;87.66;101932.88;6171222;23;46354;-90
2022/05/07 10:19:49;;;;;;;;;5.00;4.00;;;;;30.51;87.17;101923.03;6169803;23;45409;-90
2022/05/07 10:22:21;;;;;;;;;7.67;7.67;;;;;30.17;85.73;101941.69;6173085;23;45341;-91
2022/05/07 10:25:06;;;;;;;;;8.67;5.33;;;;;29.61;85.51;101937.22;6171329;23;45402;-90
2022/05/07 10:27:35;;;;;;;;;7.33;7.33;;;;;29.10;86.08;101928.97;6170124;23;47052;-90
2022/05/07 10:30:07;;;;;;;;;7.67;6.00;;;;;28.69;85.81;101924.06;6172213;22;45397;-94
2022/05/07 10:32:48;;;;;;;;;9.00;7.67;;;;;28.19;85.88;101911.97;6171837;22;45617;-89
2022/05/07 10:35:14;;;;;;;;;6.00;5.00;;;;;27.74;86.39;101912.38;6170033;23;45333;-90
2022/05/07 10:37:41;;;;;;;;;8.67;6.67;;;;;27.38;85.97;101908.19;6171802;23;48116;-89
2022/05/07 10:40:12;;;;;;;;;9.33;6.67;;;;;27.07;86.91;101900.25;6172084;23;46025;-90
2022/05/07 10:42:40;;;;;;;;;6.00;5.00;;;;;26.88;86.91;101898.56;6171819;22;45698;-90
2022/05/07 10:45:07;;;;;;;;;5.00;5.00;;;;;26.75;87.18;101891.47;6172641;23;45649;-90
2022/05/07 10:47:32;;;;;;;;;7.00;7.00;;;;;26.75;87.72;101884.25;6173098;22;45292;-90
2022/05/07 10:50:13;;;;;;;;;6.33;6.00;;;;;27.14;88.60;101879.63;6170674;23;45414;-91
2022/05/07 10:52:39;;;;;;;;;6.00;5.67;;;;;27.07;87.21;101886.78;6169785;23;45395;-91
2022/05/07 10:55:17;;;;;;;;;9.00;5.67;;;;;26.94;87.60;101886.84;6170497;23;45845;-91
2022/05/07 10:57:47;;;;;;;;;6.67;5.67;;;;;27.06;87.78;101885.00;6173315;22;46180;-92
2022/05/07 11:00:21;;;;;;;;;6.67;5.00;;;;;27.33;88.12;101878.56;6170437;23;45313;-90
2022/05/07 11:02:51;;;;;;;;;7.00;7.00;;;;;27.21;87.03;101881.34;6170065;23;45406;-88
2022/05/07 11:05:17;;;;;;;;;8.67;7.00;;;;;27.11;86.69;101880.50;6171979;23;45269;-89
2022/05/07 11:07:43;;;;;;;;;10.00;8.00;;;;;27.78;88.56;101868.31;6174430;22;46125;-93
2022/05/07 11:10:10;;;;;;;;;8.00;7.67;;;;;28.66;88.32;101865.56;6174444;23;45336;-91
2022/05/07 11:12:36;;;;;;;;;10.67;8.67;;;;;29.43;88.25;101874.41;6174352;23;45361;-96
2022/05/07 11:15:03;;;;;;;;;6.67;6.00;;;;;30.56;87.76;101886.78;6174217;23;45309;-95
2022/05/07 11:17:33;;;;;;;;;7.00;7.00;;;;;30.86;86.17;101909.66;6176092;23;48622;-94
2022/05/07 11:19:59;;;;;;;;;6.67;6.67;;;;;31.26;85.38;101902.41;6172168;23;45411;-90
2022/05/07 11:22:32;;;;;;;;;8.67;7.00;;;;;32.04;85.99;101906.81;6173828;22;45281;-88
2022/05/07 11:25:02;;;;;;;;;5.33;5.33;;;;;32.96;84.24;101927.81;6178713;22;45494;-93
2022/05/07 11:27:34;;;;;;;;;6.33;6.33;;;;;33.37;81.47;101954.66;6173756;23;47089;-90
2022/05/07 11:30:01;;;;;;;;;8.00;7.00;;;;;33.09;79.74;101959.09;6174229;23;45891;-89
2022/05/07 11:32:40;;;;;;;;;6.00;4.00;;;;;32.59;79.45;101957.84;6179009;23;45348;-92
2022/05/07 11:35:07;;;;;;;;;5.67;5.00;;;;;32.82;79.48;101964.47;6171877;23;45467;-90
2022/05/07 11:37:41;;;;;;;;;7.00;5.00;;;;;32.54;78.58;101957.09;6171279;23;47972;-92
2022/05/07 11:40:11;;;;;;;;;6.00;6.00;;;;;31.99;76.47;101972.13;6170593;23;45811;-90
2022/05/07 11:42:40;;;;;;;;;5.67;4.00;;;;;31.47;76.50;101967.06;6172264;23;45453;-91
2022/05/07 11:45:32;;;;;;;;;4.67;4.67;;;;;31.83;78.24;101948.09;6173734;23;45300;-91
2022/05/07 11:47:58;;;;;;;;;5.33;5.33;;;;;33.45;79.29;101944.38;6173154;23;46981;-92
2022/05/07 11:50:29;;;;;;;;;5.00;5.00;;;;;36.22;80.61;101933.91;6174120;23;45240;-91
2022/05/07 11:52:55;;;;;;;;;5.00;5.00;;;;;39.09;78.61;101957.84;6171851;23;45349;-90
2022/05/07 11:55:29;;;;;;;;;4.00;4.00;;;;;40.34;73.79;101981.66;6171941;23;45352;-93
2022/05/07 11:57:56;;;;;;;;;7.00;5.33;;;;;39.88;68.92;102008.25;6174376;23;45615;-94
2022/05/07 12:00:26;;;;;;;;;6.33;6.33;;;;;38.66;67.16;102016.88;6175948;23;45836;-94
2022/05/07 12:02:52;;;;;;;;;5.33;4.00;;;;;37.17;65.93;102027.09;6175342;23;45257;-92
2022/05/07 12:05:18;;;;;;;;;6.33;5.00;;;;;35.44;65.87;102029.06;6174435;23;45254;-91
2022/05/07 12:07:48;;;;;;;;;5.33;4.33;;;;;33.92;66.07;102026.38;6171745;23;48176;-90
2022/05/07 12:10:13;;;;;;;;;3.67;3.67;;;;;32.64;67.25;102021.09;6170796;23;45351;-92
2022/05/07 12:12:39;;;;;;;;;5.67;5.67;;;;;31.60;68.18;102011.97;6170065;23;45484;-91
2022/05/07 12:15:05;;;;;;;;;6.33;4.33;;;;;30.94;69.09;102004.38;6174006;23;45594;-92
2022/05/07 12:20:16;;;;;;;;;6.00;6.00;;;;;33.76;74.51;101974.25;6176809;23;45212;-92
2022/05/07 12:30:53;;;;;;;;;4.00;3.50;;;;;46.90;61.92;102032.56;6269565;22;45352;-93
2022/05/07 12:33:19;;;;;;;;;3.00;2.00;;;;;48.98;58.38;102026.75;6336359;22;45307;-92
2022/05/07 12:35:44;;;;;;;;;2.33;2.00;;;;;50.73;54.68;102031.03;6333659;22;45307;-94
2022/05/07 12:38:10;;;;;;;;;3.67;3.67;;;;;52.18;51.86;102035.56;6306806;22;46209;-94
2022/05/07 12:40:36;;;;;;;;;3.00;3.00;;;;;53.42;48.31;102025.81;6334201;22;45290;-94
2022/05/07 12:43:01;;;;;;;;;4.00;1.67;;;;;53.10;44.86;102034.25;6309100;22;45397;-94
2022/05/07 12:45:27;;;;;;;;;3.33;3.33;;;;;51.58;43.17;102039.44;6337918;22;45493;-93
2022/05/07 12:47:53;;;;;;;;;3.00;2.00;;;;;49.89;43.22;102033.34;6322761;22;45424;-92
2022/05/07 12:50:18;;;;;;;;;0.33;0.33;;;;;48.03;41.57;102028.56;6182419;22;45394;-92
2022/05/07 12:52:43;;;;;;;;;2.00;2.00;;;;;46.26;42.59;102030.81;6335238;22;45707;-92
2022/05/07 12:55:09;;;;;;;;;2.33;2.33;;;;;46.10;44.79;102019.19;6308046;22;45541;-91
2022/05/07 12:57:34;;;;;;;;;1.00;1.00;;;;;46.83;43.83;102026.72;6303528;22;48324;-90
2022/05/07 12:59:59;;;;;;;;;2.00;1.00;;;;;46.93;42.98;102032.28;6307073;22;45392;-90
2022/05/07 13:02:25;;;;;;;;;1.00;1.00;;;;;45.26;42.40;102020.78;6332986;22;45379;-93
2022/05/07 13:04:50;;;;;;;;;1.00;1.00;;;;;43.24;42.72;102021.78;6331858;22;45455;-94
2022/05/07 13:07:15;;;;;;;;;1.67;1.00;;;;;41.43;43.47;102014.16;6334377;22;48119;-94
2022/05/07 13:09:41;;;;;;;;;2.00;1.67;;;;;42.55;45.85;102018.50;6306985;22;63861;-93
2022/05/07 13:12:07;;;;;;;;;0.00;0.00;;;;;45.69;45.87;102010.69;6335690;22;45285;-93
2022/05/07 13:14:35;;;;;;;;;0.67;0.67;;;;;48.65;45.19;102006.84;6281173;22;45236;-93
2022/05/07 13:17:01;;;;;;;;;2.33;1.00;;;;;49.80;41.46;102001.72;6331683;22;46145;-94
2022/05/07 13:19:26;;;;;;;;;1.33;1.33;;;;;49.95;41.16;102003.91;6335852;22;45330;-93
2022/05/07 13:21:52;;;;;;;;;2.00;1.00;;;;;51.99;41.11;102006.00;6307448;22;45604;-94
2022/05/07 13:24:17;;;;;;;;;0.67;0.00;;;;;54.09;40.52;102011.16;6306591;22;45556;-94
2022/05/07 13:26:43;;;;;;;;;2.00;2.00;;;;;52.68;37.51;102009.31;6308284;22;47306;-94
2022/05/07 13:29:09;;;;;;;;;2.33;1.67;;;;;49.98;37.44;101998.88;6305548;22;45404;-93
2022/05/07 13:31:37;;;;;;;;;0.00;0.00;;;;;47.29;38.31;101992.88;6306303;22;45373;-92
2022/05/07 13:34:04;;;;;;;;;2.67;1.00;;;;;44.79;39.00;101980.34;6306230;22;45355;-93
2022/05/07 13:36:30;;;;;;;;;2.00;2.00;;;;;42.64;39.90;101983.81;6334009;22;45444;-92
2022/05/07 13:38:55;;;;;;;;;2.00;2.00;;;;;40.70;40.76;101984.03;6305619;22;45302;-93
2022/05/07 13:41:21;;;;;;;;;2.00;2.00;;;;;38.98;41.82;101983.16;6303267;22;56174;-92
2022/05/07 13:43:47;;;;;;;;;2.33;1.33;;;;;37.51;43.42;101983.53;6308507;22;45538;-93
2022/05/07 13:46:12;;;;;;;;;2.67;2.67;;;;;36.30;44.44;101975.44;6307087;22;46867;-93
2022/05/07 13:48:38;;;;;;;;;6.67;4.00;;;;;35.22;46.19;101980.81;6335260;22;45313;-92